createdAt,value
2023-05-13T00:02:26.799Z,15.45
2023-05-13T00:04:55.381Z,16.95
2023-05-13T00:07:23.570Z,21.35
2023-05-13T00:09:51.936Z,21.05
2023-05-13T00:12:20.405Z,19.75
2023-05-13T00:14:50.219Z,18.17
2023-05-13T00:17:18.825Z,22.05
2023-05-13T00:19:47.298Z,21.63
2023-05-13T00:22:15.497Z,26.00
2023-05-13T00:24:44.038Z,24.95
2023-05-13T00:27:12.421Z,24.00
2023-05-13T00:29:40.559Z,28.95
2023-05-13T00:32:10.733Z,33.92
2023-05-13T00:34:39.406Z,32.88
2023-05-13T00:37:10.168Z,33.58
2023-05-13T00:39:38.356Z,40.38
2023-05-13T00:42:07.260Z,44.22
2023-05-13T00:44:35.633Z,43.40
2023-05-13T00:47:04.119Z,43.67
2023-05-13T00:49:33.978Z,49.58
2023-05-13T00:52:02.690Z,50.65
2023-05-13T00:54:31.275Z,56.90
2023-05-13T00:57:00.145Z,62.85
2023-05-13T00:59:30.492Z,64.68
2023-05-13T01:02:05.504Z,61.92
2023-05-13T01:04:43.742Z,58.72
2023-05-13T01:07:19.264Z,60.92
2023-05-13T01:09:57.868Z,62.92
2023-05-13T01:12:33.657Z,57.88
2023-05-13T01:15:06.925Z,53.58
2023-05-13T01:17:39.844Z,59.50
2023-05-13T01:20:11.019Z,67.78
2023-05-13T01:22:40.709Z,58.45
2023-05-13T01:25:10.127Z,70.72
2023-05-13T01:27:38.366Z,71.97
2023-05-13T01:30:08.096Z,73.53
2023-05-13T01:32:36.861Z,73.78
2023-05-13T01:35:06.588Z,69.00
2023-05-13T01:37:35.074Z,72.05
2023-05-13T01:40:14.358Z,73.88
2023-05-13T01:42:49.106Z,68.32
2023-05-13T01:45:17.268Z,68.57
2023-05-13T01:47:45.476Z,75.68
2023-05-13T01:50:14.032Z,70.78
2023-05-13T01:52:42.183Z,69.00
2023-05-13T01:55:11.928Z,68.13
2023-05-13T01:57:40.257Z,69.68
2023-05-13T02:00:09.803Z,62.58
2023-05-13T02:02:38.039Z,72.38
2023-05-13T02:05:07.347Z,60.67
2023-05-13T02:07:35.613Z,64.38
2023-05-13T02:10:03.727Z,73.53
2023-05-13T02:12:33.606Z,70.97
2023-05-13T02:15:02.419Z,68.22
2023-05-13T02:17:30.526Z,76.68
2023-05-13T02:19:58.788Z,80.15
2023-05-13T02:22:27.006Z,77.80
2023-05-13T02:24:55.148Z,73.20
2023-05-13T02:27:23.993Z,75.65
2023-05-13T02:29:53.513Z,75.85
2023-05-13T02:32:21.679Z,72.90
2023-05-13T02:34:50.265Z,77.90
2023-05-13T02:37:18.460Z,79.55
2023-05-13T02:39:46.753Z,86.20
2023-05-13T02:42:15.246Z,79.40
2023-05-13T02:44:43.388Z,81.10
2023-05-13T02:47:12.851Z,90.80
2023-05-13T02:49:41.203Z,84.50
2023-05-13T02:52:09.333Z,81.50
2023-05-13T02:54:37.612Z,88.70
2023-05-13T02:57:06.312Z,89.07
2023-05-13T02:59:34.426Z,79.43
2023-05-13T03:02:02.546Z,94.47
2023-05-13T03:04:32.315Z,97.60
2023-05-13T03:07:00.792Z,101.65
2023-05-13T03:09:29.078Z,100.80
2023-05-13T03:11:57.286Z,95.80
2023-05-13T03:14:25.949Z,95.45
2023-05-13T03:16:54.306Z,101.82
2023-05-13T03:19:22.586Z,97.60
2023-05-13T03:21:52.256Z,96.75
2023-05-13T03:24:20.410Z,90.68
2023-05-13T03:26:48.724Z,91.80
2023-05-13T03:29:17.407Z,94.22
2023-05-13T03:31:45.853Z,104.50
2023-05-13T03:34:14.041Z,90.68
2023-05-13T03:36:42.424Z,89.50
2023-05-13T03:39:12.120Z,95.47
2023-05-13T03:41:40.434Z,89.10
2023-05-13T03:44:08.994Z,89.93
2023-05-13T03:46:37.260Z,102.03
2023-05-13T03:49:05.539Z,96.57
2023-05-13T03:51:34.448Z,93.85
2023-05-13T03:54:02.721Z,95.05
2023-05-13T03:56:32.360Z,92.00
2023-05-13T03:59:00.810Z,89.78
2023-05-13T04:01:29.102Z,93.53
2023-05-13T04:03:57.408Z,87.72
2023-05-13T04:06:25.972Z,87.20
2023-05-13T04:08:54.236Z,82.72
2023-05-13T04:11:22.645Z,87.35
2023-05-13T04:13:52.619Z,84.35
2023-05-13T04:16:21.358Z,82.60
2023-05-13T04:18:49.720Z,98.70
2023-05-13T04:21:18.188Z,101.88
2023-05-13T04:23:46.455Z,95.55
2023-05-13T04:26:14.687Z,96.22
2023-05-13T04:28:43.062Z,95.65
2023-05-13T04:31:12.841Z,95.15
2023-05-13T04:33:41.084Z,90.13
2023-05-13T04:36:09.709Z,98.57
2023-05-13T04:38:38.011Z,95.47
2023-05-13T04:41:06.592Z,94.38
2023-05-13T04:43:34.946Z,85.45
2023-05-13T04:46:03.229Z,86.15
2023-05-13T04:48:32.748Z,89.78
2023-05-13T04:51:01.702Z,93.35
2023-05-13T04:53:30.482Z,89.13
2023-05-13T04:56:00.967Z,84.85
2023-05-13T04:58:29.598Z,83.50
2023-05-13T05:00:57.930Z,73.25
2023-05-13T05:03:26.107Z,66.28
2023-05-13T05:05:55.845Z,63.47
2023-05-13T05:08:24.008Z,56.85
2023-05-13T05:10:52.205Z,57.15
2023-05-13T05:13:20.504Z,48.88
2023-05-13T05:15:48.798Z,51.10
2023-05-13T05:18:17.225Z,54.83
2023-05-13T05:20:45.683Z,51.33
2023-05-13T05:23:15.342Z,49.65
2023-05-13T05:25:43.649Z,51.08
2023-05-13T05:28:12.402Z,46.85
2023-05-13T05:30:40.787Z,43.75
2023-05-13T05:33:09.945Z,41.63
2023-05-13T05:35:38.591Z,38.42
2023-05-13T05:38:08.496Z,39.83
2023-05-13T05:40:41.699Z,38.42
2023-05-13T05:43:11.134Z,35.58
2023-05-13T05:45:39.826Z,35.65
2023-05-13T05:48:08.674Z,32.05
2023-05-13T05:50:37.590Z,33.15
2023-05-13T05:53:07.150Z,32.45
2023-05-13T05:55:35.553Z,31.17
2023-05-13T05:58:07.395Z,27.73
2023-05-13T06:00:35.738Z,32.50
2023-05-13T06:03:04.037Z,32.72
2023-05-13T06:05:32.526Z,26.98
2023-05-13T06:08:00.766Z,27.65
2023-05-13T06:10:29.042Z,27.00
2023-05-13T06:12:57.474Z,29.08
2023-05-13T06:15:27.290Z,26.13
2023-05-13T06:17:55.538Z,23.88
2023-05-13T06:20:24.319Z,24.63
2023-05-13T06:22:52.933Z,25.40
2023-05-13T06:25:21.220Z,28.35
2023-05-13T06:27:49.703Z,24.92
2023-05-13T06:30:18.149Z,21.70
2023-05-13T06:33:00.231Z,20.75
2023-05-13T06:35:30.411Z,25.40
2023-05-13T06:37:58.764Z,21.48
2023-05-13T06:40:27.090Z,21.42
2023-05-13T06:42:55.888Z,18.02
2023-05-13T06:45:25.992Z,20.92
2023-05-13T06:47:56.614Z,18.13
2023-05-13T06:50:24.969Z,17.65
2023-05-13T06:52:53.299Z,19.52
2023-05-13T06:55:21.763Z,18.50
2023-05-13T06:57:49.996Z,18.52
2023-05-13T07:00:19.170Z,16.08
2023-05-13T07:02:47.866Z,15.18
2023-05-13T07:05:17.807Z,17.65
2023-05-13T07:07:46.077Z,16.35
2023-05-13T07:10:14.397Z,17.13
2023-05-13T07:12:42.683Z,16.52
2023-05-13T07:15:11.727Z,14.77
2023-05-13T07:17:40.800Z,14.80
2023-05-13T07:20:10.220Z,30.27
2023-05-13T07:22:39.845Z,27.90
2023-05-13T07:25:09.047Z,17.20
2023-05-13T07:27:37.839Z,13.68
2023-05-13T07:30:07.330Z,13.60
2023-05-13T07:32:37.214Z,16.77
2023-05-13T07:35:06.332Z,12.10
2023-05-13T07:37:34.709Z,12.30
2023-05-13T07:40:04.665Z,13.10
2023-05-13T07:42:33.203Z,11.63
2023-05-13T07:45:01.511Z,12.20
2023-05-13T07:47:31.477Z,15.13
2023-05-13T07:50:00.218Z,14.38
2023-05-13T07:52:28.776Z,13.45
2023-05-13T07:54:56.962Z,13.40
2023-05-13T07:57:27.130Z,12.38
2023-05-13T07:59:55.372Z,14.00
2023-05-13T08:02:24.496Z,11.23
2023-05-13T08:04:52.898Z,13.52
2023-05-13T08:07:21.282Z,11.10
2023-05-13T08:09:49.397Z,12.55
2023-05-13T08:12:17.539Z,13.77
2023-05-13T08:14:48.828Z,11.43
2023-05-13T08:17:18.403Z,12.20
2023-05-13T08:19:47.147Z,12.00
2023-05-13T08:22:15.524Z,13.50
2023-05-13T08:24:44.166Z,11.13
2023-05-13T08:27:13.102Z,12.52
2023-05-13T08:29:41.326Z,12.70
2023-05-13T08:32:11.452Z,13.55
2023-05-13T08:34:40.139Z,13.23
2023-05-13T08:37:08.417Z,13.40
2023-05-13T08:39:37.096Z,12.70
2023-05-13T08:42:06.956Z,11.57
2023-05-13T08:44:40.112Z,13.38
2023-05-13T08:47:16.679Z,19.80
2023-05-13T08:49:46.589Z,13.70
2023-05-13T08:52:14.876Z,13.57
2023-05-13T08:54:45.298Z,13.73
2023-05-13T08:57:13.787Z,14.48
2023-05-13T08:59:42.239Z,16.65
2023-05-13T09:02:12.273Z,13.25
2023-05-13T09:04:42.379Z,16.38
2023-05-13T09:07:11.508Z,16.30
2023-05-13T09:09:39.905Z,17.15
2023-05-13T09:12:09.385Z,16.15
2023-05-13T09:14:39.029Z,16.85
2023-05-13T09:17:07.919Z,15.25
2023-05-13T09:19:37.665Z,13.60
2023-05-13T09:22:06.195Z,15.10
2023-05-13T09:24:34.447Z,16.00
2023-05-13T09:27:02.803Z,17.20
2023-05-13T09:29:31.303Z,16.38
2023-05-13T09:32:07.631Z,17.10
2023-05-13T09:34:37.816Z,19.98
2023-05-13T09:37:07.380Z,29.55
2023-05-13T09:39:39.788Z,26.52
2023-05-13T09:42:16.559Z,22.10
2023-05-13T09:44:45.753Z,21.05
2023-05-13T09:47:14.919Z,22.25
2023-05-13T09:49:46.657Z,22.05
2023-05-13T09:52:18.385Z,22.27
2023-05-13T09:54:46.631Z,21.02
2023-05-13T09:57:15.960Z,24.05
2023-05-13T09:59:44.272Z,24.98
2023-05-13T10:02:16.495Z,23.08
2023-05-13T10:04:46.289Z,24.90
2023-05-13T10:07:15.077Z,27.15
2023-05-13T10:09:47.154Z,29.73
2023-05-13T10:12:21.099Z,34.30
2023-05-13T10:14:53.037Z,32.00
2023-05-13T10:17:22.553Z,30.20
2023-05-13T10:19:53.702Z,32.78
2023-05-13T10:22:29.475Z,31.10
2023-05-13T10:24:59.363Z,30.63
2023-05-13T10:27:29.576Z,30.63
2023-05-13T10:30:00.565Z,33.65
2023-05-13T10:32:32.223Z,31.48
2023-05-13T10:35:06.700Z,28.00
2023-05-13T10:37:59.731Z,29.38
2023-05-13T10:40:54.275Z,28.00
2023-05-13T10:43:25.308Z,30.17
2023-05-13T10:45:58.800Z,35.13
2023-05-13T10:48:27.409Z,31.08
2023-05-13T10:50:58.803Z,29.20
2023-05-13T10:53:29.644Z,30.98
2023-05-13T10:55:59.856Z,27.77
2023-05-13T10:58:32.364Z,32.03
2023-05-13T11:01:18.224Z,28.65
2023-05-13T11:03:54.283Z,31.65
2023-05-13T11:06:25.000Z,29.80
2023-05-13T11:08:56.132Z,31.60
2023-05-13T11:11:33.156Z,27.42
2023-05-13T11:14:09.004Z,25.25
2023-05-13T11:16:38.527Z,25.92
2023-05-13T11:19:19.885Z,28.05
2023-05-13T11:21:52.182Z,26.75
2023-05-13T11:24:22.508Z,26.08
2023-05-13T11:26:53.248Z,24.38
2023-05-13T11:29:40.154Z,23.15
2023-05-13T11:32:08.674Z,25.08
2023-05-13T11:34:37.218Z,26.15
2023-05-13T11:37:12.073Z,26.98
2023-05-13T11:39:41.968Z,24.67
2023-05-13T11:42:11.744Z,25.13
2023-05-13T11:44:47.057Z,26.33
2023-05-13T11:47:15.688Z,25.50
2023-05-13T11:49:45.047Z,28.15
2023-05-13T11:52:15.738Z,30.35
2023-05-13T11:54:49.179Z,31.85
2023-05-13T11:57:23.829Z,26.70
2023-05-13T11:59:58.407Z,23.73
2023-05-13T12:02:28.226Z,29.10
2023-05-13T12:04:57.031Z,26.92
2023-05-13T12:07:27.462Z,28.48
2023-05-13T12:09:58.951Z,29.90
2023-05-13T12:12:28.010Z,27.50
2023-05-13T12:14:57.895Z,27.85
2023-05-13T12:17:26.668Z,30.02
2023-05-13T12:20:12.322Z,27.48
2023-05-13T12:22:53.988Z,28.20
2023-05-13T12:25:47.712Z,26.73
2023-05-13T12:30:52.088Z,22.05
2023-05-13T12:33:21.615Z,28.55
2023-05-13T12:35:51.870Z,25.10
2023-05-13T12:38:24.197Z,27.75
2023-05-13T12:40:53.155Z,24.30
2023-05-13T12:43:21.849Z,26.65
2023-05-13T12:45:55.836Z,26.50
2023-05-13T12:48:27.260Z,25.30
2023-05-13T12:50:56.553Z,26.90
2023-05-13T12:53:26.245Z,24.85
2023-05-13T12:55:54.467Z,27.05
2023-05-13T12:58:22.983Z,24.50
2023-05-13T13:00:51.568Z,29.17
2023-05-13T13:03:22.420Z,28.15
2023-05-13T13:05:53.017Z,27.27
2023-05-13T13:08:21.697Z,28.27
2023-05-13T13:10:51.634Z,29.40
2023-05-13T13:13:19.818Z,27.45
2023-05-13T13:15:48.216Z,25.48
2023-05-13T13:18:16.510Z,29.08
2023-05-13T13:20:44.724Z,27.58
2023-05-13T13:23:13.144Z,25.63
2023-05-13T13:25:41.681Z,29.38
2023-05-13T13:28:11.317Z,26.10
2023-05-13T13:30:45.870Z,24.95
2023-05-13T13:33:16.072Z,26.70
2023-05-13T13:35:45.440Z,27.70
2023-05-13T13:38:13.725Z,24.25
2023-05-13T13:40:42.463Z,27.45
2023-05-13T13:43:12.225Z,27.65
2023-05-13T13:45:40.849Z,26.88
2023-05-13T13:48:09.567Z,24.90
2023-05-13T13:50:37.997Z,25.27
2023-05-13T13:53:06.161Z,25.08
2023-05-13T13:55:34.679Z,25.98
2023-05-13T13:58:03.097Z,30.20
2023-05-13T14:00:32.646Z,25.85
2023-05-13T14:03:02.636Z,27.67
2023-05-13T14:05:31.333Z,30.70
2023-05-13T14:07:59.466Z,23.30
2023-05-13T14:10:27.662Z,28.45
2023-05-13T14:12:56.039Z,26.13
2023-05-13T14:15:28.689Z,29.38
2023-05-13T14:17:58.819Z,30.27
2023-05-13T14:20:28.992Z,28.23
2023-05-13T14:22:57.414Z,23.95
2023-05-13T14:25:25.618Z,23.15
2023-05-13T14:27:54.603Z,27.98
2023-05-13T14:30:23.088Z,26.77
2023-05-13T14:32:51.707Z,25.20
2023-05-13T14:35:21.599Z,27.63
2023-05-13T14:37:50.095Z,26.10
2023-05-13T14:40:18.377Z,23.90
2023-05-13T14:42:46.750Z,23.42
2023-05-13T14:45:17.615Z,24.77
2023-05-13T14:47:47.419Z,23.42
2023-05-13T14:50:16.192Z,26.73
2023-05-13T14:52:46.456Z,28.33
2023-05-13T14:55:14.888Z,22.33
2023-05-13T14:57:43.383Z,27.48
2023-05-13T15:00:12.768Z,24.73
2023-05-13T15:02:41.419Z,26.20
2023-05-13T15:05:11.413Z,27.70
2023-05-13T15:07:39.840Z,24.80
2023-05-13T15:10:10.936Z,26.10
2023-05-13T15:12:39.141Z,24.17
2023-05-13T15:15:08.536Z,25.95
2023-05-13T15:17:37.404Z,27.13
2023-05-13T15:20:06.893Z,25.85
2023-05-13T15:22:35.183Z,25.02
2023-05-13T15:25:03.408Z,27.25
2023-05-13T15:27:33.219Z,27.48
2023-05-13T15:30:01.873Z,23.42
2023-05-13T15:32:30.319Z,25.00
2023-05-13T15:34:58.673Z,21.60
2023-05-13T15:37:27.219Z,25.50
2023-05-13T15:39:56.475Z,22.67
2023-05-13T15:42:24.870Z,26.60
2023-05-13T15:44:54.461Z,26.17
2023-05-13T15:47:23.081Z,21.45
2023-05-13T15:49:54.291Z,25.40
2023-05-13T15:52:23.149Z,25.20
2023-05-13T15:54:51.353Z,27.40
2023-05-13T15:57:19.986Z,23.75
2023-05-13T15:59:48.507Z,27.50
2023-05-13T16:02:18.757Z,23.05
2023-05-13T16:04:47.036Z,26.73
2023-05-13T16:07:15.458Z,25.73
2023-05-13T16:09:43.613Z,24.20
2023-05-13T16:12:12.055Z,25.50
2023-05-13T16:14:40.226Z,28.88
2023-05-13T16:17:08.389Z,24.05
2023-05-13T16:19:38.153Z,27.05
2023-05-13T16:22:28.024Z,32.08
2023-05-13T16:24:59.315Z,25.92
2023-05-13T16:27:28.322Z,28.13
2023-05-13T16:29:57.135Z,23.00
2023-05-13T16:32:26.141Z,24.55
2023-05-13T16:34:56.300Z,23.90
2023-05-13T16:37:24.553Z,26.85
2023-05-13T16:39:52.815Z,26.25
2023-05-13T16:42:21.686Z,26.42
2023-05-13T16:44:50.373Z,27.77
2023-05-13T16:47:18.727Z,26.70
2023-05-13T16:49:49.947Z,24.83
2023-05-13T16:52:19.890Z,27.30
2023-05-13T16:54:48.401Z,28.00
2023-05-13T16:57:17.053Z,28.20
2023-05-13T16:59:45.640Z,23.08
2023-05-13T17:02:14.097Z,26.02
2023-05-13T17:04:42.650Z,26.15
2023-05-13T17:07:11.634Z,27.33
2023-05-13T17:09:41.615Z,27.65
2023-05-13T17:12:10.216Z,27.60
2023-05-13T17:14:38.379Z,27.92
2023-05-13T17:17:06.997Z,25.77
2023-05-13T17:19:35.569Z,26.52
2023-05-13T17:22:03.982Z,27.35
2023-05-13T17:24:32.308Z,30.50
2023-05-13T17:27:01.834Z,30.33
2023-05-13T17:29:29.992Z,29.23
2023-05-13T17:31:58.221Z,30.83
2023-05-13T17:34:26.426Z,35.67
2023-05-13T17:36:54.585Z,29.80
2023-05-13T17:39:22.788Z,28.92
2023-05-13T17:41:51.067Z,31.88
2023-05-13T17:44:20.917Z,31.38
2023-05-13T17:46:49.226Z,29.27
2023-05-13T17:49:17.572Z,29.45
2023-05-13T17:51:45.935Z,29.50
2023-05-13T17:54:14.448Z,30.83
2023-05-13T17:56:42.705Z,28.45
2023-05-13T17:59:11.773Z,31.30
2023-05-13T18:01:41.740Z,31.08
2023-05-13T18:04:10.057Z,34.35
2023-05-13T18:06:38.234Z,33.35
2023-05-13T18:09:06.712Z,32.47
2023-05-13T18:11:35.155Z,30.35
2023-05-13T18:14:03.515Z,35.20
2023-05-13T18:16:32.071Z,35.05
2023-05-13T18:19:01.716Z,34.75
2023-05-13T18:21:30.998Z,34.30
2023-05-13T18:23:59.444Z,35.53
2023-05-13T18:26:27.922Z,32.22
2023-05-13T18:28:56.226Z,34.28
2023-05-13T18:31:24.589Z,35.60
2023-05-13T18:33:52.874Z,36.55
2023-05-13T18:36:22.508Z,35.03
2023-05-13T18:38:51.058Z,33.80
2023-05-13T18:41:19.455Z,34.95
2023-05-13T18:43:47.723Z,37.08
2023-05-13T18:46:16.517Z,38.97
2023-05-13T18:48:45.546Z,39.80
2023-05-13T18:51:14.454Z,37.20
2023-05-13T18:53:44.211Z,37.42
2023-05-13T18:56:12.611Z,40.75
2023-05-13T18:58:40.956Z,38.35
2023-05-13T19:01:09.702Z,36.70
2023-05-13T19:03:38.426Z,42.10
2023-05-13T19:06:06.921Z,41.63
2023-05-13T19:08:35.085Z,43.90
2023-05-13T19:11:04.802Z,47.47
2023-05-13T19:13:39.842Z,37.28
2023-05-13T19:16:16.092Z,40.38
2023-05-13T19:18:44.551Z,40.33
2023-05-13T19:21:12.754Z,44.10
2023-05-13T19:23:41.241Z,37.28
2023-05-13T19:26:11.083Z,40.05
2023-05-13T19:28:40.154Z,41.92
2023-05-13T19:31:08.622Z,43.40
2023-05-13T19:33:37.478Z,38.08
2023-05-13T19:36:06.818Z,41.53
2023-05-13T19:38:36.252Z,45.20
2023-05-13T19:41:05.122Z,44.22
2023-05-13T19:43:34.829Z,43.20
2023-05-13T19:46:03.334Z,40.97
2023-05-13T19:48:32.004Z,50.95
2023-05-13T19:51:00.219Z,40.40
2023-05-13T19:53:28.538Z,46.58
2023-05-13T19:55:57.034Z,49.90
2023-05-13T19:58:25.580Z,45.83
2023-05-13T20:00:56.291Z,45.85
2023-05-13T20:03:24.549Z,50.75
2023-05-13T20:05:53.082Z,49.05
2023-05-13T20:08:21.806Z,46.80
2023-05-13T20:10:49.985Z,45.15
2023-05-13T20:13:18.114Z,51.72
2023-05-13T20:15:46.586Z,54.15
2023-05-13T20:18:16.320Z,52.45
2023-05-13T20:20:47.047Z,52.05
2023-05-13T20:23:15.458Z,47.17
2023-05-13T20:25:43.725Z,53.78
2023-05-13T20:28:11.998Z,57.58
2023-05-13T20:30:42.226Z,61.70
2023-05-13T20:33:10.628Z,58.10
2023-05-13T20:35:40.320Z,59.65
2023-05-13T20:38:09.019Z,63.63
2023-05-13T20:40:37.749Z,64.72
2023-05-13T20:43:07.804Z,64.38
2023-05-13T20:45:39.355Z,70.90
2023-05-13T20:48:08.148Z,71.50
2023-05-13T20:50:37.605Z,70.07
2023-05-13T20:53:07.370Z,65.60
2023-05-13T20:55:35.518Z,73.35
2023-05-13T20:58:03.904Z,77.55
2023-05-13T21:00:32.252Z,74.30
2023-05-13T21:03:00.596Z,74.28
2023-05-13T21:05:28.879Z,75.97
2023-05-13T21:07:57.064Z,74.43
2023-05-13T21:10:26.712Z,77.15
2023-05-13T21:12:54.966Z,77.85
2023-05-13T21:15:23.102Z,77.25
2023-05-13T21:17:51.227Z,82.13
2023-05-13T21:20:19.821Z,74.65
2023-05-13T21:22:48.077Z,87.65
2023-05-13T21:25:16.419Z,83.68
2023-05-13T21:27:45.998Z,81.55
2023-05-13T21:30:14.877Z,78.35
2023-05-13T21:32:43.094Z,88.53
2023-05-13T21:35:11.571Z,88.63
2023-05-13T21:37:40.860Z,84.35
2023-05-13T21:40:10.504Z,87.65
2023-05-13T21:42:38.997Z,90.07
2023-05-13T21:45:10.376Z,94.50
2023-05-13T21:47:38.798Z,90.35
2023-05-13T21:50:08.997Z,91.07
2023-05-13T21:52:37.407Z,96.45
2023-05-13T21:55:06.203Z,89.70
2023-05-13T21:57:34.609Z,91.82
2023-05-13T22:00:03.040Z,93.85
2023-05-13T22:02:32.972Z,95.22
2023-05-13T22:05:01.416Z,93.18
2023-05-13T22:07:29.746Z,96.38
2023-05-13T22:09:57.965Z,91.97
2023-05-13T22:12:26.894Z,91.32
2023-05-13T22:14:55.086Z,91.78
2023-05-13T22:17:23.524Z,86.45
2023-05-13T22:19:53.844Z,91.63
2023-05-13T22:22:22.125Z,85.63
2023-05-13T22:24:50.504Z,85.53
2023-05-13T22:27:19.286Z,81.65
2023-05-13T22:29:47.465Z,86.85
2023-05-13T22:32:15.917Z,81.20
2023-05-13T22:34:44.535Z,88.63
2023-05-13T22:37:14.176Z,84.78
2023-05-13T22:39:42.421Z,88.43
2023-05-13T22:42:10.700Z,76.10
2023-05-13T22:44:38.995Z,76.93
2023-05-13T22:47:08.478Z,86.70
2023-05-13T22:49:37.018Z,88.63
2023-05-13T22:52:06.012Z,88.00
2023-05-13T22:54:35.555Z,89.70
2023-05-13T22:57:03.766Z,84.20
2023-05-13T22:59:32.177Z,86.07
2023-05-13T23:02:00.622Z,93.90
2023-05-13T23:04:29.038Z,91.32
2023-05-13T23:06:57.361Z,89.43
2023-05-13T23:09:25.488Z,98.63
2023-05-13T23:11:55.028Z,91.97
2023-05-13T23:14:24.542Z,86.07
2023-05-13T23:16:52.725Z,91.53
2023-05-13T23:19:20.907Z,89.70
2023-05-13T23:21:49.359Z,98.55
2023-05-13T23:24:17.557Z,86.53
2023-05-13T23:26:47.377Z,92.18
2023-05-13T23:29:17.839Z,94.93
2023-05-13T23:31:46.082Z,98.63
2023-05-13T23:34:14.257Z,100.43
2023-05-13T23:36:42.708Z,98.90
2023-05-13T23:39:10.938Z,98.85
2023-05-13T23:41:39.468Z,101.13
2023-05-13T23:44:07.912Z,102.93
2023-05-13T23:46:37.442Z,95.22
2023-05-13T23:49:05.610Z,98.63
2023-05-13T23:51:33.845Z,107.30
2023-05-13T23:54:02.027Z,100.22
2023-05-13T23:56:30.216Z,107.03
2023-05-13T23:58:58.600Z,104.90
